San Quentin, CA (94974)

6:39 AM PDT on October 01, 2014 (GMT -0700)
Southern Heights | Change Station
CLOSE
Current Station
Personal Weather Station
Location: San Rafael, CA
Elevation: 299 ft
Nearby Weather Stations

Elev 299 ft 37.96 °N, 122.53 °W | Updated 4 minutes ago

Clear
Clear
61.9 °F
Feels Like 61.9 °F
N
2.2
Wind Variable Wind from SSE

Today
High -- | Low -- °F
--% Chance of Precip.
Yesterday
High -- | Low -- °F
Precip. -- in
7:05 AM 6:53 PM
Waxing Crescent, 47% visible
Pressure 29.91 in
Visibility 8.0 miles
Clouds Clear
Dew Point 41 °F
Humidity 47%
Rainfall 0.00 in
Snow Depth 1 in , 0 in , 1 in
UV 0 out of 12
Pollen 3.60 out of 12
Ozone Good
PM2.5 Good
Flu Activity Not available.
METAR KO69 011315Z AUTO 35003KT 8SM CLR 10/09 A2991 RMK AO1

More Conditions Fewer Conditions

Pressure 29.91 in
Visibility 8.0 miles
Clouds Clear
Dew Point 41 °F
Humidity 47%
Rainfall 0.00 in
Snow Depth 1 in , 0 in , 1 in
UV 0 out of 12
Pollen 3.60 out of 12
Ozone Good
PM2.5 Good
Flu Activity Not available.
METAR KO69 011315Z AUTO 35003KT 8SM CLR 10/09 A2991 RMK AO1

More Conditions Fewer Conditions

10-Day Weather Forecast

Almanac

Astronomy

Oct. 01, 2014 Rise Set
Actual Time 7:05 AM PDT 6:53 PM PDT
Civil Twilight 6:39 AM PDT 7:19 PM PDT
Nautical Twilight 6:09 AM PDT 7:49 PM PDT
Astronomical Twilight 5:38 AM PDT 8:20 PM PDT
Moon 2:07 PM PDT No Moon Set
Length of Visible Light 12h 39m
Length of Day
11h 47m
Tomorrow will be 2m 26s shorter.
Waxing Crescent, 47% of the Moon is Illuminated
Today
Waxing Crescent
Oct 1
First Quarter
Oct 8
Full
Oct 15
Last Quarter
Oct 23
New

Today's Extremes

State Highs State Lows

Community

WunderPhotos

Upload Photos

1,757,937 photos uploaded!

Nearby

Air Quality

  Air Quality AQ Index Pollutant
Yesterday Good
PM2.5
Yesterday Good
OZONE
Current Good
PM2.5
Current Good
OZONE
Wednesday Good
PM2.5
Thursday Moderate
PM2.5
Friday Moderate
PM2.5
Saturday Moderate
PM2.5
Sunday Moderate
PM2.5

Snow Depth

Station Depth Elevation
Monitor Pass 1 in 8350 ft
Poison Flat 0 in 7900 ft
Echo Peak 1 in 7800 ft
Adin Mountain 0 in 6200 ft
Independence Lake 0 in 8450 ft

Earthquake Activity

City Distance Mag. Time & Date
East Foothills, California 53 miles 2.6 3:34 PM PDT
2014-09-30
South Dos Palos, California 130 miles 2.7 3:08 PM PDT
2014-09-30
South Dos Palos, California 130 miles 2.5 9:18 PM PDT
2014-09-29
American Canyon, California 20 miles 2.5 12:17 AM PDT
2014-09-29
Minimum magnitude displayed is 2.5.

Coastal Water Temperatures

Place Temperature
San Francisco, CA 64.9 °F
Richmond, CA 66.9 °F
Port Chicago, CA 69.1 °F

Nearby Weather Stations